AAA584 YPPH-NZAA
Flight info
| Callsign | AAA584 |
|---|---|
| Flight time | 3h 45m |
| Altitude | 35000 |
| Route | MEMUP5/21 MEMUP DCT CRICK DCT RIDLE Y53 ROMPA DCT SUBUM/N0478F370 DCT 39S140E DCT MIMIM DCT 4050S15041E 41S155E DCT MIDAT DCT PEBLU |
| Aircraft | B77W/H-SDE1E2E3FGHIJ2J3J4J5M1RWXY/LB1D1 |
Departure
| Time | 2026-05-05 08:28 |
|---|---|
| Airport | Perth International Airport (YPPH) |
Arrival
| Time | 2026-05-05 12:14 |
|---|---|
| Airport | Auckland International Airport (NZAA) |
| Time | Latitude | Longitude | Altitude | Speed | Heading |
|---|---|---|---|---|---|
| 2026-05-05 08:11 | -31.94014 | 115.97377 | 72 ft | 0 kts | 162° |
| 2026-05-05 08:18 | -31.94013 | 115.97376 | 72 ft | 2 kts | 162° |
| 2026-05-05 08:18 | -31.93999 | 115.97371 | 62 ft | 3 kts | 162° |
| 2026-05-05 08:19 | -31.93969 | 115.97360 | 64 ft | 3 kts | 163° |
| 2026-05-05 08:19 | -31.93956 | 115.97356 | 62 ft | 2 kts | 163° |
| 2026-05-05 08:19 | -31.93930 | 115.97340 | 62 ft | 3 kts | 121° |
| 2026-05-05 08:19 | -31.93925 | 115.97317 | 62 ft | 3 kts | 78° |
| 2026-05-05 08:20 | -31.93933 | 115.97291 | 62 ft | 3 kts | 62° |
| 2026-05-05 08:20 | -31.93939 | 115.97277 | 62 ft | 0 kts | 62° |
| 2026-05-05 08:22 | -31.93930 | 115.97296 | 62 ft | 6 kts | 61° |
| 2026-05-05 08:23 | -31.93904 | 115.97336 | 62 ft | 6 kts | 41° |
| 2026-05-05 08:23 | -31.93864 | 115.97354 | 67 ft | 6 kts | 2° |
| 2026-05-05 08:23 | -31.93824 | 115.97337 | 65 ft | 6 kts | 332° |
| 2026-05-05 08:23 | -31.93784 | 115.97311 | 63 ft | 8 kts | 330° |
| 2026-05-05 08:24 | -31.93723 | 115.97269 | 64 ft | 13 kts | 329° |
| 2026-05-05 08:24 | -31.93632 | 115.97204 | 67 ft | 16 kts | 329° |
| 2026-05-05 08:24 | -31.93531 | 115.97133 | 66 ft | 17 kts | 328° |
| 2026-05-05 08:24 | -31.93429 | 115.97062 | 67 ft | 17 kts | 338° |
| 2026-05-05 08:25 | -31.93314 | 115.97065 | 67 ft | 17 kts | 13° |
| 2026-05-05 08:25 | -31.93199 | 115.97098 | 64 ft | 17 kts | 14° |
| 2026-05-05 08:25 | -31.93084 | 115.97132 | 67 ft | 17 kts | 14° |
| 2026-05-05 08:25 | -31.92995 | 115.97158 | 67 ft | 11 kts | 11° |
| 2026-05-05 08:26 | -31.92941 | 115.97120 | 64 ft | 9 kts | 297° |
| 2026-05-05 08:26 | -31.92922 | 115.97046 | 63 ft | 9 kts | 283° |
| 2026-05-05 08:26 | -31.92906 | 115.96971 | 64 ft | 9 kts | 284° |
| 2026-05-05 08:26 | -31.92890 | 115.96895 | 70 ft | 9 kts | 283° |
| 2026-05-05 08:27 | -31.92918 | 115.96835 | 62 ft | 10 kts | 197° |
| 2026-05-05 08:27 | -31.92951 | 115.96823 | 65 ft | 0 kts | 196° |
| 2026-05-05 08:27 | -31.92969 | 115.96817 | 67 ft | 14 kts | 195° |
| 2026-05-05 08:27 | -31.93275 | 115.96727 | 66 ft | 82 kts | 193° |
| 2026-05-05 08:28 | -31.94055 | 115.96498 | 66 ft | 146 kts | 194° |
| 2026-05-05 08:28 | -31.95205 | 115.96160 | 155 ft | 187 kts | 193° |
| 2026-05-05 08:28 | -31.96498 | 115.95756 | 592 ft | 199 kts | 194° |
| 2026-05-05 08:28 | -31.97857 | 115.95324 | 1221 ft | 204 kts | 194° |
| 2026-05-05 08:29 | -31.99262 | 115.94918 | 1776 ft | 214 kts | 188° |
| 2026-05-05 08:29 | -32.00793 | 115.94960 | 2070 ft | 234 kts | 165° |
| 2026-05-05 08:29 | -32.02321 | 115.95738 | 2513 ft | 248 kts | 145° |
| 2026-05-05 08:30 | -32.04107 | 115.99088 | 3911 ft | 255 kts | 103° |
| 2026-05-05 08:30 | -32.04535 | 116.01131 | 4657 ft | 258 kts | 105° |
| 2026-05-05 08:30 | -32.05002 | 116.03182 | 5460 ft | 262 kts | 106° |
| 2026-05-05 08:30 | -32.05488 | 116.05278 | 6157 ft | 266 kts | 106° |
| 2026-05-05 08:31 | -32.05984 | 116.07394 | 6909 ft | 269 kts | 107° |
| 2026-05-05 08:31 | -32.06658 | 116.09475 | 7490 ft | 275 kts | 115° |
| 2026-05-05 08:31 | -32.07489 | 116.11501 | 8263 ft | 275 kts | 117° |
| 2026-05-05 08:31 | -32.08337 | 116.13501 | 8957 ft | 278 kts | 117° |
| 2026-05-05 08:32 | -32.09205 | 116.15560 | 9635 ft | 282 kts | 117° |
| 2026-05-05 08:32 | -32.10077 | 116.17650 | 10339 ft | 285 kts | 117° |
| 2026-05-05 08:32 | -32.10959 | 116.19786 | 10801 ft | 298 kts | 117° |
| 2026-05-05 08:32 | -32.11897 | 116.22072 | 10958 ft | 321 kts | 117° |
| 2026-05-05 08:33 | -32.12896 | 116.24525 | 11130 ft | 343 kts | 116° |
| 2026-05-05 08:33 | -32.13957 | 116.27143 | 11348 ft | 363 kts | 116° |
| 2026-05-05 08:33 | -32.15057 | 116.29868 | 11841 ft | 373 kts | 116° |
| 2026-05-05 08:33 | -32.16167 | 116.32620 | 12456 ft | 379 kts | 116° |
| 2026-05-05 08:34 | -32.17302 | 116.35442 | 13184 ft | 382 kts | 116° |
| 2026-05-05 08:34 | -32.18444 | 116.38282 | 13970 ft | 385 kts | 116° |
| 2026-05-05 08:34 | -32.19599 | 116.41152 | 14638 ft | 389 kts | 116° |
| 2026-05-05 08:34 | -32.20767 | 116.44055 | 15238 ft | 395 kts | 116° |
| 2026-05-05 08:35 | -32.21991 | 116.46983 | 15820 ft | 400 kts | 120° |
| 2026-05-05 08:35 | -32.23414 | 116.49827 | 16426 ft | 405 kts | 123° |
| 2026-05-05 08:35 | -32.24942 | 116.52638 | 17046 ft | 409 kts | 124° |
| 2026-05-05 08:35 | -32.26509 | 116.55473 | 17656 ft | 415 kts | 124° |
| 2026-05-05 08:36 | -32.28065 | 116.58308 | 18256 ft | 420 kts | 124° |
| 2026-05-05 08:36 | -32.29650 | 116.61236 | 18839 ft | 425 kts | 124° |
| 2026-05-05 08:36 | -32.29860 | 116.61627 | 18913 ft | 426 kts | 124° |
| 2026-05-05 08:37 | -32.30584 | 116.62979 | 19167 ft | 428 kts | 124° |
| 2026-05-05 08:37 | -32.31162 | 116.64062 | 19361 ft | 429 kts | 124° |
| 2026-05-05 08:38 | -32.31463 | 116.64627 | 19578 ft | 430 kts | 123° |
| 2026-05-05 08:39 | -32.33064 | 116.67652 | 19833 ft | 437 kts | 123° |
| 2026-05-05 08:39 | -32.34133 | 116.69677 | 20227 ft | 439 kts | 123° |
| 2026-05-05 08:39 | -32.34874 | 116.71083 | 20531 ft | 440 kts | 123° |
| 2026-05-05 08:39 | -32.36493 | 116.74159 | 21184 ft | 442 kts | 123° |
| 2026-05-05 08:40 | -32.38123 | 116.77260 | 21740 ft | 446 kts | 123° |
| 2026-05-05 08:40 | -32.39747 | 116.80351 | 22270 ft | 451 kts | 123° |
| 2026-05-05 08:40 | -32.41412 | 116.83521 | 22790 ft | 456 kts | 123° |
| 2026-05-05 08:40 | -32.43091 | 116.86722 | 23326 ft | 460 kts | 123° |
| 2026-05-05 08:41 | -32.44786 | 116.89954 | 23863 ft | 464 kts | 123° |
| 2026-05-05 08:41 | -32.46494 | 116.93215 | 24315 ft | 468 kts | 124° |
| 2026-05-05 08:41 | -32.48219 | 116.96509 | 24731 ft | 472 kts | 124° |
| 2026-05-05 08:41 | -32.49952 | 116.99824 | 25208 ft | 475 kts | 124° |
| 2026-05-05 08:42 | -32.51694 | 117.03158 | 25708 ft | 477 kts | 124° |
| 2026-05-05 08:42 | -32.53443 | 117.06513 | 26178 ft | 480 kts | 123° |
| 2026-05-05 08:42 | -32.54942 | 117.10000 | 26578 ft | 485 kts | 113° |
| 2026-05-05 08:42 | -32.56058 | 117.13797 | 26973 ft | 490 kts | 109° |
| 2026-05-05 08:43 | -32.57059 | 117.17672 | 27392 ft | 493 kts | 108° |
| 2026-05-05 08:43 | -32.58040 | 117.21576 | 27840 ft | 496 kts | 108° |
| 2026-05-05 08:43 | -32.59042 | 117.25492 | 28300 ft | 498 kts | 109° |
| 2026-05-05 08:43 | -32.60078 | 117.29421 | 28704 ft | 501 kts | 109° |
| 2026-05-05 08:44 | -32.61145 | 117.33363 | 29091 ft | 504 kts | 110° |
| 2026-05-05 08:44 | -32.62234 | 117.37323 | 29448 ft | 507 kts | 110° |
| 2026-05-05 08:44 | -32.63340 | 117.41307 | 29782 ft | 510 kts | 110° |
| 2026-05-05 08:44 | -32.64438 | 117.45258 | 30128 ft | 512 kts | 110° |
| 2026-05-05 08:45 | -32.65554 | 117.49279 | 30479 ft | 514 kts | 110° |
| 2026-05-05 08:45 | -32.66668 | 117.53305 | 30819 ft | 514 kts | 110° |
| 2026-05-05 08:45 | -32.67780 | 117.57337 | 31183 ft | 513 kts | 110° |
| 2026-05-05 08:45 | -32.68887 | 117.61363 | 31565 ft | 513 kts | 110° |
| 2026-05-05 08:46 | -32.69993 | 117.65392 | 31920 ft | 513 kts | 110° |
| 2026-05-05 08:46 | -32.71096 | 117.69419 | 32264 ft | 513 kts | 110° |
| 2026-05-05 08:46 | -32.72199 | 117.73447 | 32594 ft | 513 kts | 110° |
| 2026-05-05 08:46 | -32.73277 | 117.77392 | 32923 ft | 513 kts | 110° |
| 2026-05-05 08:47 | -32.74379 | 117.81427 | 33266 ft | 513 kts | 110° |
| 2026-05-05 08:47 | -32.75477 | 117.85458 | 33581 ft | 513 kts | 110° |
| 2026-05-05 08:47 | -32.76575 | 117.89491 | 33902 ft | 513 kts | 110° |
| 2026-05-05 08:47 | -32.77671 | 117.93521 | 34215 ft | 513 kts | 110° |
| 2026-05-05 08:48 | -32.78767 | 117.97557 | 34505 ft | 513 kts | 110° |
| 2026-05-05 08:48 | -32.79860 | 118.01590 | 34775 ft | 513 kts | 110° |
| 2026-05-05 08:48 | -32.80952 | 118.05625 | 35046 ft | 512 kts | 110° |
| 2026-05-05 08:48 | -32.82041 | 118.09654 | 35262 ft | 513 kts | 110° |
| 2026-05-05 08:49 | -32.83122 | 118.13656 | 35301 ft | 517 kts | 110° |
| 2026-05-05 08:49 | -32.85314 | 118.21796 | 35601 ft | 516 kts | 110° |
| 2026-05-05 08:49 | -32.86403 | 118.25853 | 35962 ft | 513 kts | 110° |
| 2026-05-05 08:50 | -32.87485 | 118.29889 | 36284 ft | 511 kts | 110° |
| 2026-05-05 08:50 | -32.88564 | 118.33913 | 36571 ft | 510 kts | 110° |
| 2026-05-05 08:50 | -32.89639 | 118.37932 | 36826 ft | 510 kts | 110° |
| 2026-05-05 08:50 | -32.90714 | 118.41952 | 37024 ft | 510 kts | 110° |
| 2026-05-05 08:51 | -32.91788 | 118.45977 | 37235 ft | 510 kts | 110° |
| 2026-05-05 08:51 | -32.93921 | 118.53987 | 37342 ft | 512 kts | 110° |
| 2026-05-05 08:52 | -32.96064 | 118.62061 | 37348 ft | 511 kts | 110° |
| 2026-05-05 08:52 | -32.98371 | 118.70027 | 37369 ft | 507 kts | 115° |
| 2026-05-05 08:53 | -33.01209 | 118.77686 | 37360 ft | 505 kts | 117° |
| 2026-05-05 08:53 | -33.04103 | 118.85242 | 37364 ft | 505 kts | 117° |
| 2026-05-05 08:54 | -33.06943 | 118.92904 | 37360 ft | 506 kts | 116° |
| 2026-05-05 08:54 | -33.09734 | 119.00612 | 37361 ft | 507 kts | 116° |
| 2026-05-05 08:55 | -33.12512 | 119.08341 | 37367 ft | 508 kts | 116° |
| 2026-05-05 08:55 | -33.15298 | 119.16098 | 37370 ft | 509 kts | 116° |
| 2026-05-05 08:56 | -33.18069 | 119.23817 | 37377 ft | 510 kts | 116° |
| 2026-05-05 08:56 | -33.20857 | 119.31601 | 37372 ft | 510 kts | 116° |
| 2026-05-05 08:57 | -33.23644 | 119.39401 | 37371 ft | 510 kts | 116° |
| 2026-05-05 08:57 | -33.26423 | 119.47200 | 37379 ft | 510 kts | 116° |
| 2026-05-05 08:58 | -33.29196 | 119.54998 | 37381 ft | 510 kts | 116° |
| 2026-05-05 08:58 | -33.31944 | 119.62744 | 37373 ft | 509 kts | 116° |
| 2026-05-05 08:59 | -33.34702 | 119.70538 | 37379 ft | 509 kts | 116° |
| 2026-05-05 08:59 | -33.37453 | 119.78331 | 37375 ft | 508 kts | 116° |
| 2026-05-05 09:00 | -33.40196 | 119.86119 | 37394 ft | 508 kts | 116° |
| 2026-05-05 09:00 | -33.42936 | 119.93915 | 37381 ft | 508 kts | 116° |
| 2026-05-05 09:01 | -33.45651 | 120.01662 | 37375 ft | 508 kts | 116° |
| 2026-05-05 09:01 | -33.48378 | 120.09461 | 37380 ft | 508 kts | 116° |
| 2026-05-05 09:02 | -33.51100 | 120.17265 | 37385 ft | 508 kts | 116° |
| 2026-05-05 09:02 | -33.53819 | 120.25078 | 37395 ft | 508 kts | 116° |
| 2026-05-05 09:03 | -33.56518 | 120.32852 | 37389 ft | 508 kts | 116° |
| 2026-05-05 09:03 | -33.59230 | 120.40685 | 37389 ft | 508 kts | 116° |
| 2026-05-05 09:04 | -33.61937 | 120.48523 | 37387 ft | 509 kts | 115° |
| 2026-05-05 09:04 | -33.64639 | 120.56365 | 37383 ft | 509 kts | 115° |
| 2026-05-05 09:05 | -33.67317 | 120.64157 | 37387 ft | 508 kts | 115° |
| 2026-05-05 09:05 | -33.70007 | 120.72002 | 37371 ft | 508 kts | 115° |
| 2026-05-05 09:06 | -33.72689 | 120.79845 | 37394 ft | 507 kts | 115° |
| 2026-05-05 09:06 | -33.75357 | 120.87694 | 37392 ft | 507 kts | 113° |
| 2026-05-05 09:07 | -33.77298 | 120.95801 | 37404 ft | 510 kts | 105° |
| 2026-05-05 09:07 | -33.78752 | 121.04149 | 37385 ft | 510 kts | 104° |
| 2026-05-05 09:08 | -33.80231 | 121.12492 | 37385 ft | 510 kts | 105° |
| 2026-05-05 09:08 | -33.81807 | 121.20799 | 37382 ft | 510 kts | 105° |
| 2026-05-05 09:09 | -33.83414 | 121.29040 | 37384 ft | 510 kts | 105° |
| 2026-05-05 09:09 | -33.85030 | 121.37337 | 37384 ft | 510 kts | 105° |
| 2026-05-05 09:10 | -33.86635 | 121.45642 | 37415 ft | 510 kts | 105° |
| 2026-05-05 09:10 | -33.88230 | 121.53955 | 37389 ft | 510 kts | 105° |
| 2026-05-05 09:11 | -33.89819 | 121.62270 | 37389 ft | 509 kts | 105° |
| 2026-05-05 09:11 | -33.91390 | 121.70522 | 37387 ft | 509 kts | 105° |
| 2026-05-05 09:12 | -33.92967 | 121.78833 | 37385 ft | 509 kts | 105° |
| 2026-05-05 09:12 | -33.94537 | 121.87144 | 37381 ft | 509 kts | 105° |
| 2026-05-05 09:13 | -33.96103 | 121.95458 | 37383 ft | 509 kts | 105° |
| 2026-05-05 09:13 | -33.97652 | 122.03724 | 37383 ft | 509 kts | 105° |
| 2026-05-05 09:14 | -33.99207 | 122.12047 | 37380 ft | 510 kts | 105° |
| 2026-05-05 09:14 | -34.00757 | 122.20385 | 37383 ft | 510 kts | 105° |
| 2026-05-05 09:15 | -34.02303 | 122.28726 | 37378 ft | 511 kts | 105° |
| 2026-05-05 09:15 | -34.03836 | 122.37034 | 37386 ft | 511 kts | 105° |
| 2026-05-05 09:16 | -34.05373 | 122.45395 | 37381 ft | 511 kts | 104° |
| 2026-05-05 09:16 | -34.06903 | 122.53759 | 37378 ft | 511 kts | 104° |
| 2026-05-05 09:17 | -34.08427 | 122.62119 | 37382 ft | 510 kts | 104° |
| 2026-05-05 09:17 | -34.09934 | 122.70417 | 37373 ft | 510 kts | 104° |
| 2026-05-05 09:18 | -34.11444 | 122.78771 | 37378 ft | 509 kts | 104° |
| 2026-05-05 09:18 | -34.12949 | 122.87126 | 37393 ft | 509 kts | 104° |
| 2026-05-05 09:19 | -34.14447 | 122.95481 | 37373 ft | 509 kts | 104° |
| 2026-05-05 09:19 | -34.15930 | 123.03782 | 37376 ft | 509 kts | 104° |
| 2026-05-05 09:20 | -34.17415 | 123.12133 | 37372 ft | 509 kts | 104° |
| 2026-05-05 09:20 | -34.18895 | 123.20490 | 37373 ft | 509 kts | 104° |
| 2026-05-05 09:21 | -34.20369 | 123.28845 | 37375 ft | 509 kts | 104° |
| 2026-05-05 09:21 | -34.21838 | 123.37208 | 37376 ft | 509 kts | 104° |
| 2026-05-05 09:22 | -34.23290 | 123.45513 | 37368 ft | 509 kts | 104° |
| 2026-05-05 09:22 | -34.24747 | 123.53878 | 37367 ft | 509 kts | 104° |
| 2026-05-05 09:23 | -34.26198 | 123.62248 | 37371 ft | 509 kts | 104° |
| 2026-05-05 09:23 | -34.27643 | 123.70612 | 37368 ft | 508 kts | 104° |
| 2026-05-05 09:24 | -34.29073 | 123.78928 | 37372 ft | 509 kts | 104° |
| 2026-05-05 09:24 | -34.30507 | 123.87304 | 37365 ft | 509 kts | 104° |
| 2026-05-05 09:25 | -34.31934 | 123.95676 | 37361 ft | 508 kts | 104° |
| 2026-05-05 09:25 | -34.33356 | 124.04053 | 37365 ft | 508 kts | 104° |
| 2026-05-05 09:26 | -34.34762 | 124.12376 | 37364 ft | 508 kts | 104° |
| 2026-05-05 09:26 | -34.36173 | 124.20760 | 37376 ft | 508 kts | 104° |
| 2026-05-05 09:27 | -34.37577 | 124.29143 | 37364 ft | 508 kts | 103° |
| 2026-05-05 09:27 | -34.38977 | 124.37534 | 37363 ft | 508 kts | 103° |
| 2026-05-05 09:28 | -34.40361 | 124.45870 | 37359 ft | 508 kts | 103° |
| 2026-05-05 09:28 | -34.41748 | 124.54261 | 37358 ft | 508 kts | 103° |
| 2026-05-05 09:29 | -34.43130 | 124.62655 | 37360 ft | 508 kts | 103° |
| 2026-05-05 09:29 | -34.44506 | 124.71055 | 37362 ft | 508 kts | 103° |
| 2026-05-05 09:30 | -34.45868 | 124.79404 | 37358 ft | 508 kts | 103° |
| 2026-05-05 09:30 | -34.47233 | 124.87810 | 37358 ft | 508 kts | 103° |
| 2026-05-05 09:31 | -34.48645 | 124.96202 | 37353 ft | 507 kts | 107° |
| 2026-05-05 09:31 | -34.50984 | 125.04215 | 37360 ft | 502 kts | 118° |
| 2026-05-05 09:32 | -34.54226 | 125.11686 | 37361 ft | 501 kts | 122° |
| 2026-05-05 09:32 | -34.57525 | 125.19061 | 37355 ft | 501 kts | 121° |
| 2026-05-05 09:33 | -34.60822 | 125.26521 | 37348 ft | 502 kts | 121° |
| 2026-05-05 09:33 | -34.64091 | 125.34004 | 37373 ft | 502 kts | 121° |
| 2026-05-05 09:34 | -34.67352 | 125.41505 | 37358 ft | 502 kts | 121° |
| 2026-05-05 09:34 | -34.70589 | 125.48967 | 37349 ft | 503 kts | 121° |
| 2026-05-05 09:35 | -34.73845 | 125.56484 | 37350 ft | 502 kts | 121° |
| 2026-05-05 09:35 | -34.78719 | 125.67764 | 37350 ft | 502 kts | 121° |
| 2026-05-05 09:36 | -34.81964 | 125.75295 | 37346 ft | 502 kts | 121° |
| 2026-05-05 09:36 | -34.85179 | 125.82772 | 37352 ft | 502 kts | 121° |
| 2026-05-05 09:37 | -34.88408 | 125.90299 | 37342 ft | 502 kts | 120° |
| 2026-05-05 09:37 | -34.91635 | 125.97840 | 37341 ft | 502 kts | 120° |
| 2026-05-05 09:38 | -34.94854 | 126.05378 | 37351 ft | 502 kts | 120° |
| 2026-05-05 09:38 | -34.98070 | 126.12923 | 37347 ft | 502 kts | 120° |
| 2026-05-05 09:39 | -35.01260 | 126.20426 | 37344 ft | 502 kts | 120° |
| 2026-05-05 09:39 | -35.04468 | 126.27990 | 37333 ft | 502 kts | 120° |
| 2026-05-05 09:40 | -35.07671 | 126.35557 | 37343 ft | 502 kts | 120° |
| 2026-05-05 09:40 | -35.10870 | 126.43133 | 37355 ft | 502 kts | 120° |
| 2026-05-05 09:41 | -35.14042 | 126.50659 | 37333 ft | 502 kts | 120° |
| 2026-05-05 09:41 | -35.17231 | 126.58246 | 37335 ft | 502 kts | 120° |
| 2026-05-05 09:42 | -35.20415 | 126.65836 | 37332 ft | 502 kts | 120° |
| 2026-05-05 09:42 | -35.23593 | 126.73430 | 37337 ft | 502 kts | 120° |
| 2026-05-05 09:43 | -35.26746 | 126.80982 | 37328 ft | 501 kts | 120° |
| 2026-05-05 09:43 | -35.29571 | 126.87763 | 37335 ft | 501 kts | 120° |
| 2026-05-05 09:44 | -35.32734 | 126.95370 | 37342 ft | 501 kts | 120° |
| 2026-05-05 09:44 | -35.35892 | 127.02982 | 37323 ft | 501 kts | 120° |
| 2026-05-05 09:45 | -35.39045 | 127.10602 | 37328 ft | 501 kts | 120° |
| 2026-05-05 09:45 | -35.42171 | 127.18172 | 37326 ft | 501 kts | 120° |
| 2026-05-05 09:46 | -35.45314 | 127.25803 | 37321 ft | 501 kts | 119° |
| 2026-05-05 09:46 | -35.48453 | 127.33439 | 37328 ft | 501 kts | 119° |
| 2026-05-05 09:47 | -35.51579 | 127.41064 | 37321 ft | 501 kts | 119° |
| 2026-05-05 09:47 | -35.54711 | 127.48719 | 37334 ft | 501 kts | 119° |
| 2026-05-05 09:48 | -35.57813 | 127.56319 | 37314 ft | 501 kts | 119° |
| 2026-05-05 09:48 | -35.60933 | 127.63982 | 37310 ft | 501 kts | 119° |
| 2026-05-05 09:49 | -35.64048 | 127.71648 | 37315 ft | 501 kts | 119° |
| 2026-05-05 09:49 | -35.67157 | 127.79321 | 37319 ft | 501 kts | 119° |
| 2026-05-05 09:50 | -35.70261 | 127.86998 | 37316 ft | 501 kts | 119° |
| 2026-05-05 09:50 | -35.73340 | 127.94629 | 37321 ft | 501 kts | 119° |
| 2026-05-05 09:51 | -35.76111 | 128.02510 | 37326 ft | 504 kts | 109° |
| 2026-05-05 09:51 | -35.77927 | 128.10852 | 37319 ft | 505 kts | 106° |
| 2026-05-05 09:52 | -35.79648 | 128.19233 | 37316 ft | 505 kts | 106° |
| 2026-05-05 09:52 | -35.81385 | 128.27557 | 37307 ft | 505 kts | 106° |
| 2026-05-05 09:53 | -35.83155 | 128.35934 | 37316 ft | 505 kts | 106° |
| 2026-05-05 09:53 | -35.84928 | 128.44311 | 37306 ft | 505 kts | 106° |
| 2026-05-05 09:54 | -35.86696 | 128.52701 | 37305 ft | 505 kts | 106° |
| 2026-05-05 09:54 | -35.88454 | 128.61087 | 37303 ft | 505 kts | 106° |
| 2026-05-05 09:55 | -35.90195 | 128.69424 | 37302 ft | 505 kts | 106° |
| 2026-05-05 09:55 | -35.91940 | 128.77817 | 37305 ft | 505 kts | 106° |
| 2026-05-05 09:56 | -35.93681 | 128.86217 | 37305 ft | 505 kts | 106° |
| 2026-05-05 09:56 | -35.95415 | 128.94617 | 37305 ft | 505 kts | 106° |
| 2026-05-05 09:57 | -35.97144 | 129.03025 | 37316 ft | 506 kts | 106° |
| 2026-05-05 09:57 | -35.98857 | 129.11386 | 37304 ft | 506 kts | 106° |
| 2026-05-05 09:58 | -36.00577 | 129.19811 | 37299 ft | 506 kts | 106° |
| 2026-05-05 09:58 | -36.02290 | 129.28237 | 37300 ft | 506 kts | 106° |
| 2026-05-05 09:59 | -36.03998 | 129.36673 | 37305 ft | 506 kts | 105° |
| 2026-05-05 09:59 | -36.05690 | 129.45059 | 37301 ft | 506 kts | 105° |
| 2026-05-05 10:00 | -36.07387 | 129.53506 | 37294 ft | 506 kts | 105° |
| 2026-05-05 10:00 | -36.09078 | 129.61953 | 37293 ft | 506 kts | 105° |
| 2026-05-05 10:01 | -36.10764 | 129.70409 | 37301 ft | 506 kts | 105° |
| 2026-05-05 10:01 | -36.12432 | 129.78811 | 37293 ft | 506 kts | 105° |
| 2026-05-05 10:02 | -36.14105 | 129.87266 | 37292 ft | 507 kts | 105° |
| 2026-05-05 10:02 | -36.15774 | 129.95740 | 37305 ft | 507 kts | 105° |
| 2026-05-05 10:03 | -36.17437 | 130.04213 | 37297 ft | 507 kts | 105° |
| 2026-05-05 10:03 | -36.19094 | 130.12691 | 37295 ft | 507 kts | 105° |
| 2026-05-05 10:04 | -36.20735 | 130.21124 | 37290 ft | 507 kts | 105° |
| 2026-05-05 10:04 | -36.22380 | 130.29610 | 37302 ft | 507 kts | 105° |
| 2026-05-05 10:05 | -36.24020 | 130.38104 | 37290 ft | 507 kts | 105° |
| 2026-05-05 10:05 | -36.25653 | 130.46597 | 37286 ft | 507 kts | 105° |
| 2026-05-05 10:06 | -36.27280 | 130.55092 | 37284 ft | 507 kts | 105° |
| 2026-05-05 10:06 | -36.28889 | 130.63532 | 37298 ft | 507 kts | 105° |
| 2026-05-05 10:07 | -36.30505 | 130.72036 | 37289 ft | 507 kts | 105° |
| 2026-05-05 10:07 | -36.32113 | 130.80539 | 37281 ft | 506 kts | 105° |
| 2026-05-05 10:08 | -36.33714 | 130.89041 | 37278 ft | 506 kts | 105° |
| 2026-05-05 10:08 | -36.35309 | 130.97541 | 37279 ft | 506 kts | 105° |
| 2026-05-05 10:09 | -36.36885 | 131.05978 | 37282 ft | 505 kts | 104° |
| 2026-05-05 10:09 | -36.38465 | 131.14474 | 37271 ft | 505 kts | 104° |
| 2026-05-05 10:10 | -36.40039 | 131.22971 | 37292 ft | 505 kts | 104° |
| 2026-05-05 10:10 | -36.41606 | 131.31471 | 37287 ft | 505 kts | 104° |
| 2026-05-05 10:11 | -36.43170 | 131.39982 | 37282 ft | 505 kts | 104° |
| 2026-05-05 10:11 | -36.44833 | 131.48399 | 37277 ft | 504 kts | 109° |
| 2026-05-05 10:12 | -36.47500 | 131.56408 | 37266 ft | 501 kts | 119° |
| 2026-05-05 10:12 | -36.50705 | 131.64094 | 37267 ft | 501 kts | 120° |
| 2026-05-05 10:13 | -36.53912 | 131.71795 | 37269 ft | 502 kts | 120° |
| 2026-05-05 10:13 | -36.57086 | 131.79528 | 37257 ft | 502 kts | 119° |
| 2026-05-05 10:14 | -36.60221 | 131.87233 | 37281 ft | 503 kts | 119° |
| 2026-05-05 10:14 | -36.63374 | 131.95014 | 37282 ft | 504 kts | 119° |
| 2026-05-05 10:15 | -36.66526 | 132.02802 | 37265 ft | 504 kts | 119° |
| 2026-05-05 10:15 | -36.69670 | 132.10590 | 37271 ft | 503 kts | 119° |
| 2026-05-05 10:16 | -36.72805 | 132.18371 | 37270 ft | 502 kts | 119° |
| 2026-05-05 10:16 | -36.75910 | 132.26096 | 37263 ft | 502 kts | 118° |
| 2026-05-05 10:17 | -36.79031 | 132.33879 | 37264 ft | 502 kts | 118° |
| 2026-05-05 10:17 | -36.82147 | 132.41669 | 37287 ft | 502 kts | 118° |
| 2026-05-05 10:18 | -36.85260 | 132.49472 | 37261 ft | 502 kts | 118° |
| 2026-05-05 10:18 | -36.88349 | 132.57233 | 37271 ft | 503 kts | 118° |
| 2026-05-05 10:19 | -36.91456 | 132.65059 | 37274 ft | 503 kts | 118° |
| 2026-05-05 10:19 | -36.94559 | 132.72893 | 37261 ft | 503 kts | 118° |
| 2026-05-05 10:20 | -36.97656 | 132.80733 | 37262 ft | 503 kts | 118° |
| 2026-05-05 10:20 | -37.00747 | 132.88576 | 37257 ft | 503 kts | 118° |
| 2026-05-05 10:21 | -37.03810 | 132.96368 | 37256 ft | 502 kts | 118° |
| 2026-05-05 10:21 | -37.06887 | 133.04216 | 37257 ft | 502 kts | 118° |
| 2026-05-05 10:22 | -37.09960 | 133.12072 | 37261 ft | 502 kts | 118° |
| 2026-05-05 10:22 | -37.13027 | 133.19931 | 37253 ft | 502 kts | 118° |
| 2026-05-05 10:23 | -37.16064 | 133.27735 | 37253 ft | 502 kts | 118° |
| 2026-05-05 10:23 | -37.19117 | 133.35598 | 37252 ft | 501 kts | 117° |
| 2026-05-05 10:24 | -37.22164 | 133.43467 | 37253 ft | 501 kts | 117° |
| 2026-05-05 10:24 | -37.25204 | 133.51336 | 37248 ft | 501 kts | 117° |
| 2026-05-05 10:25 | -37.28217 | 133.59156 | 37254 ft | 501 kts | 117° |
| 2026-05-05 10:25 | -37.31246 | 133.67037 | 37250 ft | 501 kts | 117° |
| 2026-05-05 10:26 | -37.34271 | 133.74926 | 37243 ft | 501 kts | 117° |
| 2026-05-05 10:26 | -37.37288 | 133.82815 | 37243 ft | 501 kts | 117° |
| 2026-05-05 10:27 | -37.40280 | 133.90661 | 37248 ft | 501 kts | 117° |
| 2026-05-05 10:27 | -37.43293 | 133.98577 | 37249 ft | 502 kts | 117° |
| 2026-05-05 10:28 | -37.46265 | 134.06408 | 37243 ft | 502 kts | 117° |
| 2026-05-05 10:28 | -37.49273 | 134.14356 | 37239 ft | 503 kts | 117° |
| 2026-05-05 10:29 | -37.52279 | 134.22317 | 37245 ft | 503 kts | 117° |
| 2026-05-05 10:29 | -37.55260 | 134.30232 | 37234 ft | 504 kts | 117° |
| 2026-05-05 10:30 | -37.58259 | 134.38218 | 37236 ft | 504 kts | 116° |
| 2026-05-05 10:30 | -37.61256 | 134.46218 | 37242 ft | 504 kts | 116° |
| 2026-05-05 10:31 | -37.64247 | 134.54222 | 37235 ft | 505 kts | 116° |
| 2026-05-05 10:31 | -37.67215 | 134.62187 | 37234 ft | 504 kts | 116° |
| 2026-05-05 10:32 | -37.70193 | 134.70199 | 37239 ft | 504 kts | 116° |
| 2026-05-05 10:32 | -37.72666 | 134.76868 | 37232 ft | 504 kts | 116° |
| 2026-05-05 10:33 | -37.75633 | 134.84890 | 37235 ft | 504 kts | 116° |
| 2026-05-05 10:33 | -37.78593 | 134.92912 | 37240 ft | 504 kts | 116° |
| 2026-05-05 10:34 | -37.81892 | 135.02317 | 37226 ft | 504 kts | 110° |
| 2026-05-05 10:34 | -37.83754 | 135.09356 | 37238 ft | 504 kts | 109° |
| 2026-05-05 10:35 | -37.85889 | 135.17739 | 37229 ft | 504 kts | 109° |
| 2026-05-05 10:35 | -37.88053 | 135.26180 | 37229 ft | 504 kts | 109° |
| 2026-05-05 10:36 | -37.90237 | 135.34616 | 37219 ft | 504 kts | 109° |
| 2026-05-05 10:36 | -37.92426 | 135.43061 | 37228 ft | 505 kts | 109° |
| 2026-05-05 10:37 | -37.94613 | 135.51520 | 37231 ft | 506 kts | 109° |
| 2026-05-05 10:37 | -37.96780 | 135.59940 | 37223 ft | 506 kts | 109° |
| 2026-05-05 10:38 | -37.98956 | 135.68428 | 37221 ft | 506 kts | 109° |
| 2026-05-05 10:38 | -38.01124 | 135.76916 | 37226 ft | 506 kts | 108° |
| 2026-05-05 10:39 | -38.03287 | 135.85412 | 37222 ft | 506 kts | 108° |
| 2026-05-05 10:39 | -38.05429 | 135.93853 | 37221 ft | 506 kts | 108° |
| 2026-05-05 10:40 | -38.07578 | 136.02350 | 37226 ft | 506 kts | 108° |
| 2026-05-05 10:40 | -38.09720 | 136.10848 | 37218 ft | 505 kts | 108° |
| 2026-05-05 10:41 | -38.11854 | 136.19346 | 37217 ft | 505 kts | 108° |
| 2026-05-05 10:41 | -38.13966 | 136.27783 | 37214 ft | 505 kts | 108° |
| 2026-05-05 10:42 | -38.17147 | 136.40546 | 37216 ft | 505 kts | 108° |
| 2026-05-05 10:43 | -38.19262 | 136.49070 | 37216 ft | 506 kts | 108° |
| 2026-05-05 10:43 | -38.21372 | 136.57604 | 37217 ft | 506 kts | 108° |
| 2026-05-05 10:44 | -38.21983 | 136.60079 | 37215 ft | 506 kts | 108° |
| 2026-05-05 10:45 | -38.24087 | 136.68629 | 37213 ft | 507 kts | 108° |
| 2026-05-05 10:45 | -38.26186 | 136.77187 | 37210 ft | 507 kts | 108° |
| 2026-05-05 10:46 | -38.28278 | 136.85746 | 37219 ft | 507 kts | 108° |
| 2026-05-05 10:46 | -38.30350 | 136.94250 | 37207 ft | 506 kts | 107° |
| 2026-05-05 10:47 | -38.32427 | 137.02809 | 37209 ft | 505 kts | 107° |
| 2026-05-05 10:47 | -38.34493 | 137.11356 | 37208 ft | 505 kts | 107° |
| 2026-05-05 10:48 | -38.36540 | 137.19847 | 37200 ft | 504 kts | 107° |
| 2026-05-05 10:48 | -38.38591 | 137.28392 | 37211 ft | 504 kts | 107° |
| 2026-05-05 10:49 | -38.40636 | 137.36939 | 37210 ft | 504 kts | 107° |
| 2026-05-05 10:49 | -38.42678 | 137.45503 | 37209 ft | 505 kts | 107° |
| 2026-05-05 10:50 | -38.44713 | 137.54073 | 37206 ft | 505 kts | 107° |
| 2026-05-05 10:50 | -38.46731 | 137.62599 | 37208 ft | 505 kts | 107° |
| 2026-05-05 10:51 | -38.48756 | 137.71189 | 37213 ft | 506 kts | 107° |
| 2026-05-05 10:51 | -38.50778 | 137.79794 | 37204 ft | 506 kts | 107° |
| 2026-05-05 10:52 | -38.52794 | 137.88407 | 37202 ft | 506 kts | 107° |
| 2026-05-05 10:52 | -38.54790 | 137.96965 | 37201 ft | 506 kts | 107° |
| 2026-05-05 10:53 | -38.56793 | 138.05588 | 37199 ft | 506 kts | 107° |
| 2026-05-05 10:53 | -38.58789 | 138.14211 | 37204 ft | 506 kts | 107° |
| 2026-05-05 10:54 | -38.60780 | 138.22844 | 37196 ft | 506 kts | 106° |
| 2026-05-05 10:54 | -38.62765 | 138.31481 | 37203 ft | 506 kts | 106° |
| 2026-05-05 10:55 | -38.64730 | 138.40067 | 37195 ft | 507 kts | 106° |
| 2026-05-05 10:55 | -38.66699 | 138.48702 | 37196 ft | 507 kts | 106° |
| 2026-05-05 10:56 | -38.68668 | 138.57369 | 37202 ft | 507 kts | 106° |
| 2026-05-05 10:56 | -38.70631 | 138.66041 | 37195 ft | 507 kts | 106° |
| 2026-05-05 10:57 | -38.72574 | 138.74661 | 37194 ft | 507 kts | 106° |
| 2026-05-05 10:57 | -38.74525 | 138.83348 | 37193 ft | 507 kts | 106° |
| 2026-05-05 10:58 | -38.76469 | 138.92038 | 37195 ft | 508 kts | 106° |
| 2026-05-05 10:58 | -38.78408 | 139.00736 | 37193 ft | 508 kts | 106° |
| 2026-05-05 10:59 | -38.80328 | 139.09383 | 37193 ft | 508 kts | 106° |
| 2026-05-05 10:59 | -38.82252 | 139.18087 | 37193 ft | 508 kts | 106° |
| 2026-05-05 11:00 | -38.84168 | 139.26781 | 37191 ft | 508 kts | 106° |
| 2026-05-05 11:00 | -38.86080 | 139.35494 | 37194 ft | 508 kts | 106° |
| 2026-05-05 11:01 | -38.87972 | 139.44154 | 37193 ft | 508 kts | 106° |
| 2026-05-05 11:01 | -38.89873 | 139.52883 | 37189 ft | 508 kts | 105° |
| 2026-05-05 11:02 | -38.91768 | 139.61621 | 37191 ft | 508 kts | 105° |
| 2026-05-05 11:02 | -38.93643 | 139.70305 | 37191 ft | 508 kts | 105° |
| 2026-05-05 11:03 | -38.95526 | 139.79054 | 37192 ft | 508 kts | 105° |
| 2026-05-05 11:03 | -38.97403 | 139.87817 | 37193 ft | 509 kts | 105° |
| 2026-05-05 11:04 | -38.99274 | 139.96583 | 37191 ft | 509 kts | 105° |
| 2026-05-05 11:04 | -39.01211 | 140.05335 | 37185 ft | 509 kts | 108° |
| 2026-05-05 11:05 | -39.03367 | 140.13941 | 37187 ft | 509 kts | 108° |
| 2026-05-05 11:05 | -39.05566 | 140.22587 | 37189 ft | 509 kts | 108° |
| 2026-05-05 11:06 | -39.07725 | 140.31255 | 37183 ft | 509 kts | 108° |
| 2026-05-05 11:06 | -39.09853 | 140.39936 | 37184 ft | 509 kts | 108° |
| 2026-05-05 11:07 | -39.13453 | 140.54730 | 37185 ft | 509 kts | 108° |
| 2026-05-05 11:07 | -39.21855 | 140.89571 | 37187 ft | 509 kts | 107° |
| 2026-05-05 11:08 | -39.30167 | 141.24554 | 37188 ft | 510 kts | 107° |
| 2026-05-05 11:08 | -39.38381 | 141.59649 | 37181 ft | 510 kts | 107° |
| 2026-05-05 11:09 | -39.46492 | 141.94836 | 37180 ft | 511 kts | 107° |
| 2026-05-05 11:09 | -39.54458 | 142.29933 | 37183 ft | 512 kts | 107° |
| 2026-05-05 11:10 | -39.62380 | 142.65390 | 37169 ft | 512 kts | 106° |
| 2026-05-05 11:10 | -39.70200 | 143.00956 | 37175 ft | 512 kts | 106° |
| 2026-05-05 11:11 | -39.77915 | 143.36620 | 37179 ft | 513 kts | 106° |
| 2026-05-05 11:11 | -39.85474 | 143.72140 | 37172 ft | 513 kts | 106° |
| 2026-05-05 11:12 | -39.91768 | 144.02178 | 37172 ft | 513 kts | 105° |
| 2026-05-05 11:12 | -39.98619 | 144.35360 | 37163 ft | 513 kts | 105° |
| 2026-05-05 11:13 | -40.05932 | 144.71377 | 37173 ft | 513 kts | 105° |
| 2026-05-05 11:13 | -40.13085 | 145.07224 | 37172 ft | 514 kts | 105° |
| 2026-05-05 11:14 | -40.20181 | 145.43427 | 37163 ft | 514 kts | 105° |
| 2026-05-05 11:14 | -40.27058 | 145.79145 | 37166 ft | 515 kts | 104° |
| 2026-05-05 11:15 | -40.34051 | 146.16147 | 37162 ft | 515 kts | 104° |
| 2026-05-05 11:15 | -40.40773 | 146.52391 | 37138 ft | 515 kts | 104° |
| 2026-05-05 11:16 | -40.47417 | 146.88899 | 37131 ft | 514 kts | 104° |
| 2026-05-05 11:16 | -40.53937 | 147.25435 | 37134 ft | 513 kts | 103° |
| 2026-05-05 11:17 | -40.60334 | 147.61996 | 37120 ft | 513 kts | 103° |
| 2026-05-05 11:17 | -40.64398 | 147.99123 | 37102 ft | 513 kts | 96° |
| 2026-05-05 11:18 | -40.67379 | 148.36274 | 37102 ft | 514 kts | 96° |
| 2026-05-05 11:18 | -40.70268 | 148.73729 | 37092 ft | 514 kts | 96° |
| 2026-05-05 11:19 | -40.73041 | 149.11262 | 37100 ft | 515 kts | 96° |
| 2026-05-05 11:19 | -40.75694 | 149.48867 | 37103 ft | 515 kts | 95° |
| 2026-05-05 11:20 | -40.78211 | 149.86289 | 37093 ft | 515 kts | 95° |
| 2026-05-05 11:20 | -40.80621 | 150.23958 | 37099 ft | 515 kts | 95° |
| 2026-05-05 11:21 | -40.82912 | 150.61691 | 37100 ft | 515 kts | 95° |
| 2026-05-05 11:21 | -40.85034 | 150.99233 | 37099 ft | 516 kts | 94° |
| 2026-05-05 11:22 | -40.87032 | 151.36833 | 37093 ft | 516 kts | 94° |
| 2026-05-05 11:22 | -40.88920 | 151.74712 | 37090 ft | 517 kts | 94° |
| 2026-05-05 11:23 | -40.90685 | 152.12638 | 37085 ft | 517 kts | 94° |
| 2026-05-05 11:23 | -40.92324 | 152.50566 | 37080 ft | 517 kts | 93° |
| 2026-05-05 11:24 | -40.93841 | 152.88543 | 37085 ft | 517 kts | 92° |
| 2026-05-05 11:24 | -40.94065 | 152.94425 | 37081 ft | 517 kts | 92° |
| 2026-05-05 11:25 | -40.95386 | 153.30919 | 37067 ft | 517 kts | 92° |
| 2026-05-05 11:25 | -40.96640 | 153.68977 | 37072 ft | 518 kts | 92° |
| 2026-05-05 11:26 | -40.97773 | 154.07174 | 37061 ft | 520 kts | 91° |
| 2026-05-05 11:26 | -40.98783 | 154.45505 | 37070 ft | 522 kts | 91° |
| 2026-05-05 11:27 | -40.99664 | 154.83777 | 37076 ft | 525 kts | 90° |
| 2026-05-05 11:27 | -40.99014 | 155.22380 | 37096 ft | 525 kts | 84° |
| 2026-05-05 11:28 | -40.97137 | 155.61096 | 37536 ft | 531 kts | 84° |
| 2026-05-05 11:28 | -40.96161 | 155.80534 | 38517 ft | 529 kts | 83° |
| 2026-05-05 11:28 | -40.95150 | 155.99963 | 39112 ft | 531 kts | 83° |
| 2026-05-05 11:29 | -40.93028 | 156.38891 | 39038 ft | 532 kts | 83° |
| 2026-05-05 11:29 | -40.91927 | 156.58221 | 38980 ft | 521 kts | 82° |
| 2026-05-05 11:29 | -40.90815 | 156.77134 | 39019 ft | 513 kts | 82° |
| 2026-05-05 11:30 | -40.88493 | 157.14980 | 39098 ft | 524 kts | 82° |
| 2026-05-05 11:30 | -40.85991 | 157.53756 | 39059 ft | 531 kts | 81° |
| 2026-05-05 11:31 | -40.83417 | 157.91677 | 38973 ft | 512 kts | 80° |
| 2026-05-05 11:31 | -40.80749 | 158.29040 | 39113 ft | 516 kts | 80° |
| 2026-05-05 11:31 | -40.79343 | 158.48100 | 39111 ft | 527 kts | 80° |
| 2026-05-05 11:32 | -40.77884 | 158.67460 | 39050 ft | 532 kts | 80° |
| 2026-05-05 11:32 | -40.74911 | 159.05675 | 38986 ft | 514 kts | 79° |
| 2026-05-05 11:33 | -40.71877 | 159.42914 | 39062 ft | 514 kts | 78° |
| 2026-05-05 11:33 | -40.68680 | 159.80707 | 39087 ft | 528 kts | 78° |
| 2026-05-05 11:34 | -40.65327 | 160.18884 | 38972 ft | 517 kts | 78° |
| 2026-05-05 11:34 | -40.61925 | 160.56083 | 39072 ft | 514 kts | 77° |
| 2026-05-05 11:35 | -40.58333 | 160.94014 | 39100 ft | 531 kts | 77° |
| 2026-05-05 11:35 | -40.54605 | 161.32118 | 38997 ft | 521 kts | 77° |
| 2026-05-05 11:36 | -40.50823 | 161.69372 | 39037 ft | 514 kts | 77° |
| 2026-05-05 11:36 | -40.46858 | 162.07208 | 39112 ft | 532 kts | 77° |
| 2026-05-05 11:37 | -40.42702 | 162.45680 | 39051 ft | 526 kts | 77° |
| 2026-05-05 11:37 | -40.39067 | 162.78303 | 39089 ft | 519 kts | 77° |
| 2026-05-05 11:38 | -40.35253 | 163.06034 | 39129 ft | 523 kts | 67° |
| 2026-05-05 11:38 | -40.26078 | 163.42511 | 39141 ft | 528 kts | 68° |
| 2026-05-05 11:39 | -40.18859 | 163.71336 | 39119 ft | 515 kts | 68° |
| 2026-05-05 11:39 | -40.09951 | 164.06360 | 39189 ft | 507 kts | 68° |
| 2026-05-05 11:40 | -40.00891 | 164.41488 | 39201 ft | 522 kts | 68° |
| 2026-05-05 11:40 | -39.91568 | 164.77133 | 39172 ft | 512 kts | 68° |
| 2026-05-05 11:41 | -39.82396 | 165.11695 | 39272 ft | 504 kts | 69° |
| 2026-05-05 11:41 | -39.73037 | 165.46475 | 39285 ft | 517 kts | 68° |
| 2026-05-05 11:42 | -39.63483 | 165.81507 | 39205 ft | 507 kts | 68° |
| 2026-05-05 11:42 | -39.54189 | 166.15117 | 39293 ft | 497 kts | 68° |
| 2026-05-05 11:43 | -39.44585 | 166.49393 | 39324 ft | 515 kts | 68° |
| 2026-05-05 11:43 | -39.34700 | 166.84221 | 39280 ft | 511 kts | 68° |
| 2026-05-05 11:44 | -39.24970 | 167.18045 | 39285 ft | 498 kts | 68° |
| 2026-05-05 11:44 | -39.15155 | 167.51731 | 39356 ft | 513 kts | 68° |
| 2026-05-05 11:45 | -39.04956 | 167.86299 | 39310 ft | 513 kts | 68° |
| 2026-05-05 11:45 | -38.99903 | 168.03259 | 39262 ft | 502 kts | 68° |
| 2026-05-05 11:45 | -38.94920 | 168.19884 | 39262 ft | 495 kts | 68° |
| 2026-05-05 11:45 | -38.89931 | 168.36419 | 39375 ft | 499 kts | 68° |
| 2026-05-05 11:46 | -38.84853 | 168.53152 | 39417 ft | 507 kts | 68° |
| 2026-05-05 11:46 | -38.74488 | 168.86997 | 39295 ft | 514 kts | 68° |
| 2026-05-05 11:47 | -38.64147 | 169.20351 | 39319 ft | 495 kts | 68° |
| 2026-05-05 11:47 | -38.53805 | 169.53310 | 39468 ft | 507 kts | 68° |
| 2026-05-05 11:48 | -38.37681 | 170.03943 | 39353 ft | 506 kts | 68° |
| 2026-05-05 11:48 | -38.27179 | 170.36438 | 39390 ft | 498 kts | 68° |
| 2026-05-05 11:49 | -38.16388 | 170.69451 | 39448 ft | 513 kts | 68° |
| 2026-05-05 11:49 | -38.04951 | 171.02862 | 39259 ft | 513 kts | 65° |
| 2026-05-05 11:50 | -37.99089 | 171.19108 | 39243 ft | 500 kts | 66° |
| 2026-05-05 11:50 | -37.93361 | 171.35023 | 39397 ft | 495 kts | 66° |
| 2026-05-05 11:50 | -37.81684 | 171.67190 | 39493 ft | 512 kts | 65° |
| 2026-05-05 11:51 | -37.75728 | 171.83461 | 39381 ft | 518 kts | 65° |
| 2026-05-05 11:51 | -37.69698 | 171.99848 | 39257 ft | 511 kts | 65° |
| 2026-05-05 11:51 | -37.63770 | 172.15873 | 39327 ft | 497 kts | 65° |
| 2026-05-05 11:51 | -37.57926 | 172.31588 | 38575 ft | 496 kts | 65° |
| 2026-05-05 11:52 | -37.55164 | 172.38988 | 36915 ft | 501 kts | 65° |
| 2026-05-05 11:52 | -37.53672 | 172.42979 | 35995 ft | 505 kts | 65° |
| 2026-05-05 11:52 | -37.52165 | 172.47004 | 35339 ft | 511 kts | 65° |
| 2026-05-05 11:52 | -37.50645 | 172.51059 | 35055 ft | 511 kts | 65° |
| 2026-05-05 11:53 | -37.49130 | 172.55092 | 34870 ft | 508 kts | 65° |
| 2026-05-05 11:53 | -37.47640 | 172.59057 | 34128 ft | 511 kts | 65° |
| 2026-05-05 11:53 | -37.46110 | 172.63120 | 33055 ft | 515 kts | 65° |
| 2026-05-05 11:53 | -37.44573 | 172.67198 | 31997 ft | 516 kts | 65° |
| 2026-05-05 11:54 | -37.43030 | 172.71287 | 30966 ft | 518 kts | 65° |
| 2026-05-05 11:54 | -37.41491 | 172.75360 | 30227 ft | 513 kts | 65° |
| 2026-05-05 11:54 | -37.39964 | 172.79395 | 29424 ft | 508 kts | 65° |
| 2026-05-05 11:54 | -37.38454 | 172.83382 | 28708 ft | 502 kts | 64° |
| 2026-05-05 11:55 | -37.36958 | 172.87324 | 28016 ft | 497 kts | 64° |
| 2026-05-05 11:55 | -37.35497 | 172.91171 | 27320 ft | 492 kts | 64° |
| 2026-05-05 11:55 | -37.34028 | 172.95034 | 26634 ft | 488 kts | 64° |
| 2026-05-05 11:55 | -37.32570 | 172.98864 | 25957 ft | 484 kts | 64° |
| 2026-05-05 11:56 | -37.31122 | 173.02663 | 25288 ft | 480 kts | 64° |
| 2026-05-05 11:56 | -37.29682 | 173.06435 | 24614 ft | 477 kts | 63° |
| 2026-05-05 11:56 | -37.28252 | 173.10178 | 23911 ft | 475 kts | 63° |
| 2026-05-05 11:56 | -37.26832 | 173.13890 | 23123 ft | 466 kts | 63° |
| 2026-05-05 11:57 | -37.25460 | 173.17475 | 22439 ft | 445 kts | 62° |
| 2026-05-05 11:57 | -37.24148 | 173.20903 | 21811 ft | 427 kts | 63° |
| 2026-05-05 11:57 | -37.22885 | 173.24193 | 21207 ft | 411 kts | 62° |
| 2026-05-05 11:57 | -37.21681 | 173.27327 | 20618 ft | 398 kts | 62° |
| 2026-05-05 11:58 | -37.20473 | 173.30461 | 20071 ft | 402 kts | 62° |
| 2026-05-05 11:58 | -37.19239 | 173.33658 | 19497 ft | 413 kts | 62° |
| 2026-05-05 11:58 | -37.17979 | 173.36924 | 18891 ft | 418 kts | 62° |
| 2026-05-05 11:58 | -37.16716 | 173.40201 | 18191 ft | 417 kts | 62° |
| 2026-05-05 11:59 | -37.15464 | 173.43469 | 17518 ft | 412 kts | 63° |
| 2026-05-05 11:59 | -37.14647 | 173.46885 | 16872 ft | 409 kts | 82° |
| 2026-05-05 11:59 | -37.14509 | 173.50400 | 16318 ft | 402 kts | 85° |
| 2026-05-05 11:59 | -37.14377 | 173.53842 | 15714 ft | 400 kts | 84° |
| 2026-05-05 12:00 | -37.14200 | 173.57314 | 15112 ft | 398 kts | 84° |
| 2026-05-05 12:00 | -37.14001 | 173.60765 | 14409 ft | 398 kts | 84° |
| 2026-05-05 12:00 | -37.13791 | 173.64229 | 13872 ft | 394 kts | 83° |
| 2026-05-05 12:00 | -37.13589 | 173.67587 | 13760 ft | 378 kts | 84° |
| 2026-05-05 12:01 | -37.13394 | 173.70806 | 13655 ft | 363 kts | 83° |
| 2026-05-05 12:01 | -37.13205 | 173.73911 | 13428 ft | 353 kts | 83° |
| 2026-05-05 12:01 | -37.13013 | 173.77012 | 12617 ft | 361 kts | 84° |
| 2026-05-05 12:01 | -37.12824 | 173.80092 | 12244 ft | 356 kts | 83° |
| 2026-05-05 12:02 | -37.12637 | 173.83136 | 12025 ft | 346 kts | 83° |
| 2026-05-05 12:02 | -37.12451 | 173.86132 | 11366 ft | 350 kts | 83° |
| 2026-05-05 12:02 | -37.12262 | 173.89180 | 10885 ft | 349 kts | 83° |
| 2026-05-05 12:02 | -37.12075 | 173.92170 | 10687 ft | 338 kts | 84° |
| 2026-05-05 12:03 | -37.11894 | 173.95053 | 10599 ft | 325 kts | 83° |
| 2026-05-05 12:03 | -37.11719 | 173.97821 | 10519 ft | 313 kts | 83° |
| 2026-05-05 12:03 | -37.11554 | 174.00421 | 10443 ft | 301 kts | 83° |
| 2026-05-05 12:03 | -37.11390 | 174.02986 | 10343 ft | 290 kts | 83° |
| 2026-05-05 12:04 | -37.11236 | 174.05410 | 10069 ft | 277 kts | 83° |
| 2026-05-05 12:04 | -37.11083 | 174.07799 | 9544 ft | 273 kts | 83° |
| 2026-05-05 12:04 | -37.10930 | 174.10161 | 8981 ft | 271 kts | 83° |
| 2026-05-05 12:04 | -37.10779 | 174.12501 | 8506 ft | 267 kts | 82° |
| 2026-05-05 12:05 | -37.10633 | 174.14797 | 8189 ft | 262 kts | 82° |
| 2026-05-05 12:05 | -37.10489 | 174.17057 | 7882 ft | 258 kts | 82° |
| 2026-05-05 12:05 | -37.10347 | 174.19287 | 7585 ft | 257 kts | 82° |
| 2026-05-05 12:05 | -37.10203 | 174.21514 | 7294 ft | 256 kts | 82° |
| 2026-05-05 12:06 | -37.10061 | 174.23724 | 7002 ft | 254 kts | 81° |
| 2026-05-05 12:06 | -37.09920 | 174.25887 | 6701 ft | 252 kts | 81° |
| 2026-05-05 12:06 | -37.09777 | 174.28081 | 6406 ft | 255 kts | 81° |
| 2026-05-05 12:06 | -37.09629 | 174.30328 | 6101 ft | 262 kts | 82° |
| 2026-05-05 12:07 | -37.09477 | 174.32625 | 5800 ft | 268 kts | 82° |
| 2026-05-05 12:07 | -37.09321 | 174.34955 | 5461 ft | 266 kts | 82° |
| 2026-05-05 12:07 | -37.09170 | 174.37210 | 5152 ft | 254 kts | 82° |
| 2026-05-05 12:07 | -37.09024 | 174.39375 | 4860 ft | 247 kts | 82° |
| 2026-05-05 12:08 | -37.08879 | 174.41505 | 4579 ft | 245 kts | 82° |
| 2026-05-05 12:08 | -37.08733 | 174.43641 | 4297 ft | 247 kts | 82° |
| 2026-05-05 12:08 | -37.08589 | 174.45762 | 4088 ft | 248 kts | 82° |
| 2026-05-05 12:08 | -37.08447 | 174.47870 | 3948 ft | 235 kts | 82° |
| 2026-05-05 12:09 | -37.08316 | 174.49833 | 3834 ft | 218 kts | 81° |
| 2026-05-05 12:09 | -37.08190 | 174.51691 | 3759 ft | 212 kts | 81° |
| 2026-05-05 12:09 | -37.08037 | 174.53515 | 3646 ft | 210 kts | 75° |
| 2026-05-05 12:09 | -37.07646 | 174.55265 | 3515 ft | 205 kts | 68° |
| 2026-05-05 12:10 | -37.07179 | 174.56931 | 3308 ft | 199 kts | 67° |
| 2026-05-05 12:10 | -37.06734 | 174.58532 | 3064 ft | 189 kts | 68° |
| 2026-05-05 12:10 | -37.06321 | 174.60044 | 2836 ft | 184 kts | 67° |
| 2026-05-05 12:10 | -37.05904 | 174.61543 | 2656 ft | 184 kts | 68° |
| 2026-05-05 12:11 | -37.05484 | 174.63072 | 2374 ft | 185 kts | 68° |
| 2026-05-05 12:11 | -37.05077 | 174.64544 | 2123 ft | 171 kts | 69° |
| 2026-05-05 12:11 | -37.04710 | 174.65888 | 1875 ft | 155 kts | 68° |
| 2026-05-05 12:11 | -37.04376 | 174.67103 | 1668 ft | 142 kts | 69° |
| 2026-05-05 12:12 | -37.04051 | 174.68274 | 1493 ft | 145 kts | 69° |
| 2026-05-05 12:12 | -37.03722 | 174.69469 | 1329 ft | 145 kts | 70° |
| 2026-05-05 12:12 | -37.03394 | 174.70662 | 1116 ft | 146 kts | 70° |
| 2026-05-05 12:12 | -37.03067 | 174.71849 | 919 ft | 148 kts | 71° |
| 2026-05-05 12:13 | -37.02726 | 174.73090 | 726 ft | 152 kts | 71° |
| 2026-05-05 12:13 | -37.02382 | 174.74343 | 510 ft | 153 kts | 71° |
| 2026-05-05 12:13 | -37.02032 | 174.75614 | 311 ft | 156 kts | 71° |
| 2026-05-05 12:13 | -37.01680 | 174.76894 | 114 ft | 154 kts | 71° |
| 2026-05-05 12:14 | -37.01349 | 174.78100 | 31 ft | 134 kts | 71° |
| 2026-05-05 12:14 | -37.01106 | 174.78978 | 30 ft | 72 kts | 71° |
| 2026-05-05 12:14 | -37.01004 | 174.79347 | 30 ft | 34 kts | 70° |
| 2026-05-05 12:14 | -37.00931 | 174.79549 | 30 ft | 19 kts | 54° |
| 2026-05-05 12:15 | -37.00835 | 174.79664 | 30 ft | 19 kts | 40° |
| 2026-05-05 12:15 | -37.00775 | 174.79722 | 30 ft | 7 kts | 31° |
| 2026-05-05 12:15 | -37.00730 | 174.79716 | 30 ft | 6 kts | 311° |
| 2026-05-05 12:15 | -37.00730 | 174.79656 | 30 ft | 14 kts | 256° |
| 2026-05-05 12:16 | -37.00766 | 174.79510 | 30 ft | 18 kts | 250° |
| 2026-05-05 12:16 | -37.00809 | 174.79361 | 30 ft | 18 kts | 250° |
| 2026-05-05 12:16 | -37.00851 | 174.79210 | 29 ft | 18 kts | 251° |
| 2026-05-05 12:16 | -37.00892 | 174.79061 | 30 ft | 18 kts | 250° |
| 2026-05-05 12:17 | -37.00933 | 174.78912 | 30 ft | 18 kts | 251° |